createdAt,value
2018-06-02T00:02:18.177Z,18.76
2018-06-02T00:04:45.764Z,18.67
2018-06-02T00:07:13.302Z,18.68
2018-06-02T00:09:40.850Z,18.77
2018-06-02T00:12:08.434Z,18.71
2018-06-02T00:14:35.985Z,18.62
2018-06-02T00:17:03.533Z,18.59
2018-06-02T00:19:31.106Z,18.68
2018-06-02T00:21:58.654Z,18.61
2018-06-02T00:24:26.198Z,18.50
2018-06-02T00:26:53.774Z,18.34
2018-06-02T00:29:21.319Z,18.28
2018-06-02T00:31:48.893Z,18.24
2018-06-02T00:34:16.465Z,18.22
2018-06-02T00:36:44.015Z,18.22
2018-06-02T00:39:11.596Z,18.21
2018-06-02T00:41:39.170Z,18.19
2018-06-02T00:44:06.720Z,18.21
2018-06-02T00:46:34.262Z,18.13
2018-06-02T00:49:01.835Z,18.14
2018-06-02T00:51:29.387Z,18.06
2018-06-02T00:53:56.942Z,18.02
2018-06-02T00:56:24.522Z,17.93
2018-06-02T00:58:52.061Z,17.97
2018-06-02T01:01:19.614Z,17.90
2018-06-02T01:03:47.199Z,17.90
2018-06-02T01:06:14.742Z,17.81
2018-06-02T01:08:42.292Z,17.74
2018-06-02T01:11:09.861Z,17.68
2018-06-02T01:13:37.401Z,17.68
2018-06-02T01:16:04.946Z,17.63
2018-06-02T01:18:32.521Z,17.57
2018-06-02T01:21:00.065Z,17.55
2018-06-02T01:23:27.609Z,17.54
2018-06-02T01:25:55.187Z,17.44
2018-06-02T01:28:23.696Z,17.46
2018-06-02T01:30:51.310Z,17.36
2018-06-02T01:33:18.886Z,17.25
2018-06-02T01:35:46.439Z,17.22
2018-06-02T01:38:13.995Z,17.16
2018-06-02T01:40:41.579Z,17.11
2018-06-02T01:43:09.125Z,17.12
2018-06-02T01:45:36.679Z,17.14
2018-06-02T01:48:04.265Z,17.14
2018-06-02T01:50:31.819Z,17.06
2018-06-02T01:52:59.370Z,17.02
2018-06-02T01:55:26.951Z,16.98
2018-06-02T01:57:54.545Z,16.93
2018-06-02T02:00:22.090Z,16.89
2018-06-02T02:02:49.682Z,16.88
2018-06-02T02:05:17.233Z,16.91
2018-06-02T02:07:44.770Z,16.98
2018-06-02T02:10:12.353Z,17.06
2018-06-02T02:12:39.899Z,17.10
2018-06-02T02:15:07.449Z,17.10
2018-06-02T02:17:35.034Z,17.01
2018-06-02T02:20:02.594Z,16.97
2018-06-02T02:22:30.148Z,16.91
2018-06-02T02:24:57.796Z,16.81
2018-06-02T02:27:25.369Z,16.85
2018-06-02T02:29:52.919Z,16.86
2018-06-02T02:32:20.501Z,16.82
2018-06-02T02:34:48.049Z,16.79
2018-06-02T02:37:15.599Z,16.81
2018-06-02T02:39:43.177Z,16.84
2018-06-02T02:42:10.731Z,16.79
2018-06-02T02:44:38.277Z,16.81
2018-06-02T02:47:05.846Z,16.84
2018-06-02T02:49:33.395Z,16.90
2018-06-02T02:52:00.936Z,16.89
2018-06-02T02:54:28.525Z,16.91
2018-06-02T02:56:56.186Z,17.00
2018-06-02T02:59:23.736Z,17.01
2018-06-02T03:01:51.311Z,17.09
2018-06-02T03:04:18.857Z,17.08
2018-06-02T03:06:46.413Z,16.98
2018-06-02T03:09:13.986Z,16.98
2018-06-02T03:11:41.537Z,17.05
2018-06-02T03:14:09.093Z,17.15
2018-06-02T03:16:36.667Z,17.21
2018-06-02T03:19:04.212Z,17.28
2018-06-02T03:21:31.762Z,17.36
2018-06-02T03:23:59.363Z,17.44
2018-06-02T03:26:26.911Z,17.60
2018-06-02T03:28:54.462Z,17.77
2018-06-02T03:31:22.034Z,17.92
2018-06-02T03:33:49.580Z,18.63
2018-06-02T03:36:17.122Z,19.88
2018-06-02T03:38:44.702Z,21.06
2018-06-02T03:41:12.250Z,22.06
2018-06-02T03:43:39.798Z,22.59
2018-06-02T03:46:07.375Z,23.46
2018-06-02T03:48:34.918Z,23.94
2018-06-02T03:51:02.467Z,24.56
2018-06-02T03:53:30.042Z,25.43
2018-06-02T03:55:57.582Z,26.34
2018-06-02T03:58:25.130Z,27.26
2018-06-02T04:00:52.701Z,28.08
2018-06-02T04:03:20.242Z,28.40
2018-06-02T04:05:47.793Z,28.86
2018-06-02T04:08:15.365Z,28.76
2018-06-02T04:10:42.945Z,28.54
2018-06-02T04:13:10.489Z,28.52
2018-06-02T04:15:38.188Z,28.85
2018-06-02T04:18:05.737Z,29.72
2018-06-02T04:20:33.290Z,30.01
2018-06-02T04:23:00.863Z,30.18
2018-06-02T04:25:28.407Z,29.23
2018-06-02T04:27:55.961Z,29.62
2018-06-02T04:30:23.668Z,30.28
2018-06-02T04:32:51.217Z,31.41
2018-06-02T04:35:18.768Z,32.21
2018-06-02T04:37:46.342Z,32.96
2018-06-02T04:40:13.890Z,32.71
2018-06-02T04:42:41.445Z,32.56
2018-06-02T04:45:09.014Z,31.93
2018-06-02T04:47:36.568Z,32.32
2018-06-02T04:50:04.128Z,33.86
2018-06-02T04:52:31.702Z,34.39
2018-06-02T04:54:59.249Z,35.22
2018-06-02T04:57:26.800Z,34.85
2018-06-02T04:59:54.545Z,35.25
2018-06-02T05:02:22.103Z,35.97
2018-06-02T05:04:49.666Z,35.08
2018-06-02T05:07:17.258Z,34.65
2018-06-02T05:09:44.797Z,35.42
2018-06-02T05:12:12.376Z,35.58
2018-06-02T05:14:39.942Z,35.00
2018-06-02T05:17:07.482Z,34.56
2018-06-02T05:19:35.021Z,34.36
2018-06-02T05:22:02.597Z,34.37
2018-06-02T05:24:30.173Z,33.35
2018-06-02T05:26:57.725Z,33.57
2018-06-02T05:29:25.371Z,34.03
2018-06-02T05:31:52.891Z,34.03
2018-06-02T05:34:20.442Z,33.23
2018-06-02T05:36:48.021Z,33.59
2018-06-02T05:39:15.574Z,33.77
2018-06-02T05:41:43.130Z,34.91
2018-06-02T05:44:10.697Z,36.27
2018-06-02T05:46:38.265Z,36.44
2018-06-02T05:49:05.831Z,36.30
2018-06-02T05:51:33.406Z,37.20
2018-06-02T05:54:00.942Z,37.90
2018-06-02T05:56:28.481Z,37.11
2018-06-02T05:58:56.041Z,36.78
2018-06-02T06:01:23.592Z,37.22
2018-06-02T06:03:51.142Z,37.04
2018-06-02T06:06:18.715Z,38.01
2018-06-02T06:08:46.263Z,38.52
2018-06-02T06:11:14.638Z,39.24
2018-06-02T06:13:42.225Z,37.57
2018-06-02T06:16:09.816Z,36.66
2018-06-02T06:18:37.375Z,37.99
2018-06-02T06:21:04.980Z,38.66
2018-06-02T06:23:32.528Z,39.32
2018-06-02T06:26:00.083Z,38.83
2018-06-02T06:28:27.678Z,39.29
2018-06-02T06:30:55.245Z,39.99
2018-06-02T06:33:22.788Z,39.30
2018-06-02T06:35:50.365Z,38.27
2018-06-02T06:38:17.913Z,38.81
2018-06-02T06:40:45.460Z,39.31
2018-06-02T06:43:13.034Z,38.78
2018-06-02T06:45:40.586Z,39.63
2018-06-02T06:48:08.243Z,40.65
2018-06-02T06:50:35.900Z,41.03
2018-06-02T06:53:03.423Z,41.17
2018-06-02T06:55:30.974Z,42.48
2018-06-02T06:57:58.546Z,41.57
2018-06-02T07:00:26.171Z,40.29
2018-06-02T07:02:53.726Z,40.49
2018-06-02T07:05:21.306Z,40.90
2018-06-02T07:07:48.850Z,40.55
2018-06-02T07:10:16.397Z,41.15
2018-06-02T07:12:44.011Z,40.36
2018-06-02T07:15:11.559Z,40.73
2018-06-02T07:17:39.107Z,40.70
2018-06-02T07:20:06.678Z,40.58
2018-06-02T07:22:34.232Z,41.00
2018-06-02T07:25:01.781Z,40.95
2018-06-02T07:27:29.365Z,40.96
2018-06-02T07:29:56.914Z,40.68
2018-06-02T07:32:24.454Z,39.86
2018-06-02T07:34:52.035Z,38.89
2018-06-02T07:37:19.582Z,38.56
2018-06-02T07:39:47.138Z,36.70
2018-06-02T07:42:14.761Z,35.60
2018-06-02T07:44:42.301Z,36.00
2018-06-02T07:47:09.850Z,36.96
2018-06-02T07:49:37.430Z,36.20
2018-06-02T07:52:04.975Z,34.99
2018-06-02T07:54:32.516Z,35.46
2018-06-02T07:57:00.132Z,35.67
2018-06-02T07:59:27.668Z,36.95
2018-06-02T08:01:55.210Z,37.51
2018-06-02T08:04:22.792Z,37.34
2018-06-02T08:06:50.332Z,37.50
2018-06-02T08:09:17.883Z,37.41
2018-06-02T08:11:45.459Z,36.93
2018-06-02T08:14:13.010Z,36.57
2018-06-02T08:16:40.564Z,35.26
2018-06-02T08:19:08.141Z,35.44
2018-06-02T08:21:35.682Z,35.01
2018-06-02T08:24:03.236Z,34.74
2018-06-02T08:26:30.816Z,34.85
2018-06-02T08:28:58.372Z,35.28
2018-06-02T08:31:25.930Z,35.07
2018-06-02T08:33:53.496Z,34.72
2018-06-02T08:36:21.038Z,35.71
2018-06-02T08:38:48.578Z,36.25
2018-06-02T08:41:16.149Z,36.05
2018-06-02T08:43:43.692Z,35.30
2018-06-02T08:46:11.234Z,35.02
2018-06-02T08:48:38.807Z,35.27
2018-06-02T08:51:06.362Z,35.44
2018-06-02T08:53:33.916Z,35.38
2018-06-02T08:56:01.477Z,35.39
2018-06-02T08:58:29.031Z,35.27
2018-06-02T09:00:56.667Z,34.91
2018-06-02T09:03:24.235Z,35.39
2018-06-02T09:05:51.770Z,36.20
2018-06-02T09:08:20.079Z,36.00
2018-06-02T09:10:50.323Z,36.09
2018-06-02T09:13:18.169Z,35.45
2018-06-02T09:15:45.826Z,35.08
2018-06-02T09:18:13.639Z,34.56
2018-06-02T09:20:42.921Z,35.11
2018-06-02T09:23:12.561Z,35.84
2018-06-02T09:25:43.608Z,36.89
2018-06-02T09:28:14.187Z,36.12
2018-06-02T09:30:45.968Z,35.75
2018-06-02T09:33:15.595Z,34.80
2018-06-02T09:35:43.391Z,35.73
2018-06-02T09:38:10.978Z,36.05
2018-06-02T09:40:38.526Z,36.25
2018-06-02T09:43:06.070Z,37.05
2018-06-02T09:45:33.643Z,37.63
2018-06-02T09:48:01.192Z,37.07
2018-06-02T09:50:28.737Z,37.52
2018-06-02T09:52:56.310Z,38.05
2018-06-02T09:55:23.854Z,37.61
2018-06-02T09:57:51.408Z,37.98
2018-06-02T10:00:25.684Z,38.01
2018-06-02T10:02:53.259Z,37.82
2018-06-02T10:05:20.812Z,37.26
2018-06-02T10:07:48.396Z,36.11
2018-06-02T10:10:16.007Z,36.16
2018-06-02T10:12:43.565Z,36.70
2018-06-02T10:15:11.252Z,37.54
2018-06-02T10:17:38.805Z,37.04
2018-06-02T10:20:06.338Z,36.91
2018-06-02T10:22:33.915Z,37.98
2018-06-02T10:25:01.464Z,38.39
2018-06-02T10:27:29.007Z,39.23
2018-06-02T10:29:56.582Z,40.39
2018-06-02T10:32:24.114Z,39.85
2018-06-02T10:34:51.705Z,40.02
2018-06-02T10:37:19.298Z,40.70
2018-06-02T10:39:46.868Z,40.38
2018-06-02T10:42:14.427Z,39.71
2018-06-02T10:44:42.047Z,39.86
2018-06-02T10:47:09.555Z,38.69
2018-06-02T10:49:37.098Z,38.31
2018-06-02T10:52:04.700Z,38.67
2018-06-02T10:54:32.253Z,39.06
2018-06-02T10:56:59.814Z,39.35
2018-06-02T10:59:27.384Z,38.39
2018-06-02T11:01:54.921Z,39.06
2018-06-02T11:04:22.468Z,40.25
2018-06-02T11:06:50.038Z,39.35
2018-06-02T11:09:17.586Z,38.84
2018-06-02T11:11:45.146Z,38.11
2018-06-02T11:14:12.732Z,38.04
2018-06-02T11:16:40.280Z,38.17
2018-06-02T11:19:07.827Z,37.94
2018-06-02T11:21:35.410Z,39.00
2018-06-02T11:24:02.951Z,40.07
2018-06-02T11:26:30.486Z,40.02
2018-06-02T11:28:58.176Z,39.51
2018-06-02T11:31:25.729Z,39.94
2018-06-02T11:33:53.270Z,39.24
2018-06-02T11:36:20.851Z,39.09
2018-06-02T11:38:48.403Z,38.03
2018-06-02T11:41:15.947Z,38.24
2018-06-02T11:43:43.519Z,39.32
2018-06-02T11:46:11.232Z,39.09
2018-06-02T11:48:38.770Z,38.79
2018-06-02T11:51:06.348Z,39.67
2018-06-02T11:53:33.886Z,40.38
2018-06-02T11:56:01.426Z,39.93
2018-06-02T11:58:29.054Z,40.23
2018-06-02T12:00:56.613Z,39.40
2018-06-02T12:03:24.174Z,38.71
2018-06-02T12:05:51.755Z,38.05
2018-06-02T12:08:19.299Z,37.47
2018-06-02T12:10:46.846Z,36.90
2018-06-02T12:13:14.418Z,36.96
2018-06-02T12:15:41.957Z,37.88
2018-06-02T12:18:09.514Z,38.34
2018-06-02T12:20:37.128Z,39.93
2018-06-02T12:23:04.661Z,40.91
2018-06-02T12:25:32.203Z,39.86
2018-06-02T12:27:59.803Z,37.76
2018-06-02T12:30:27.360Z,36.15
2018-06-02T12:32:54.902Z,35.19
2018-06-02T12:35:22.479Z,34.12
2018-06-02T12:37:50.030Z,34.22
2018-06-02T12:40:17.648Z,33.89
2018-06-02T12:42:45.195Z,33.26
2018-06-02T12:45:12.761Z,33.14
2018-06-02T12:47:40.363Z,33.00
2018-06-02T12:50:07.948Z,33.04
2018-06-02T12:52:35.550Z,33.02
2018-06-02T12:55:03.084Z,33.12
2018-06-02T12:57:30.682Z,33.32
2018-06-02T12:59:58.223Z,33.38
2018-06-02T13:02:25.776Z,33.37
2018-06-02T13:04:53.370Z,32.97
2018-06-02T13:07:20.915Z,32.71
2018-06-02T13:09:48.463Z,32.65
2018-06-02T13:12:16.034Z,32.55
2018-06-02T13:14:43.655Z,32.90
2018-06-02T13:17:11.146Z,32.88
2018-06-02T13:19:38.720Z,32.42
2018-06-02T13:22:06.260Z,32.32
2018-06-02T13:24:33.806Z,32.40
2018-06-02T13:27:01.378Z,32.52
2018-06-02T13:29:28.923Z,32.05
2018-06-02T13:31:56.466Z,32.16
2018-06-02T13:34:24.054Z,32.27
2018-06-02T13:36:54.082Z,32.44
2018-06-02T13:39:21.617Z,32.46
2018-06-02T13:41:49.199Z,32.26
2018-06-02T13:44:16.749Z,32.09
2018-06-02T13:46:44.298Z,32.02
2018-06-02T13:49:11.870Z,31.97
2018-06-02T13:51:39.409Z,32.15
2018-06-02T13:54:06.959Z,32.02
2018-06-02T13:56:34.590Z,31.78
2018-06-02T13:59:02.135Z,32.02
2018-06-02T14:01:29.675Z,31.89
2018-06-02T14:03:57.239Z,31.95
2018-06-02T14:06:24.789Z,31.85
2018-06-02T14:08:52.339Z,31.69
2018-06-02T14:11:19.951Z,31.56
2018-06-02T14:13:47.502Z,31.63
2018-06-02T14:16:15.048Z,31.87
2018-06-02T14:18:42.627Z,31.72
2018-06-02T14:21:10.165Z,31.88
2018-06-02T14:23:37.748Z,31.86
2018-06-02T14:26:05.331Z,31.66
2018-06-02T14:28:32.891Z,31.64
2018-06-02T14:31:00.433Z,31.64
2018-06-02T14:33:28.018Z,31.56
2018-06-02T14:35:55.562Z,31.54
2018-06-02T14:38:23.124Z,31.55
2018-06-02T14:40:50.738Z,31.60
2018-06-02T14:43:18.282Z,31.52
2018-06-02T14:45:45.817Z,31.38
2018-06-02T14:48:13.462Z,31.39
2018-06-02T14:50:41.033Z,31.41
2018-06-02T14:53:08.578Z,31.42
2018-06-02T14:55:36.166Z,31.09
2018-06-02T14:58:03.717Z,31.10
2018-06-02T15:00:31.278Z,31.03
2018-06-02T15:02:58.918Z,30.86
2018-06-02T15:05:26.458Z,30.90
2018-06-02T15:07:54.002Z,30.81
2018-06-02T15:10:21.582Z,30.72
2018-06-02T15:12:49.125Z,30.76
2018-06-02T15:15:16.669Z,30.70
2018-06-02T15:17:44.301Z,30.69
2018-06-02T15:20:11.824Z,30.57
2018-06-02T15:22:39.373Z,30.60
2018-06-02T15:25:06.960Z,30.66
2018-06-02T15:27:34.520Z,30.54
2018-06-02T15:30:02.086Z,30.44
2018-06-02T15:32:29.699Z,30.44
2018-06-02T15:34:57.253Z,30.39
2018-06-02T15:37:24.790Z,30.36
2018-06-02T15:39:52.367Z,30.27
2018-06-02T15:42:19.939Z,30.30
2018-06-02T15:44:47.478Z,30.25
2018-06-02T15:47:15.072Z,30.17
2018-06-02T15:49:42.628Z,30.10
2018-06-02T15:52:10.178Z,30.16
2018-06-02T15:54:37.746Z,30.11
2018-06-02T15:57:05.290Z,29.96
2018-06-02T15:59:32.841Z,30.01
2018-06-02T16:02:00.416Z,30.01
2018-06-02T16:04:27.978Z,29.93
2018-06-02T16:06:55.538Z,29.85
2018-06-02T16:09:23.108Z,29.75
2018-06-02T16:11:50.662Z,29.72
2018-06-02T16:14:18.217Z,29.67
2018-06-02T16:16:45.781Z,29.64
2018-06-02T16:19:13.322Z,29.52
2018-06-02T16:21:40.873Z,29.50
2018-06-02T16:24:08.455Z,29.44
2018-06-02T16:26:36.007Z,29.39
2018-06-02T16:29:03.557Z,29.29
2018-06-02T16:31:31.135Z,29.24
2018-06-02T16:33:58.682Z,29.16
2018-06-02T16:36:26.239Z,29.08
2018-06-02T16:38:53.858Z,29.07
2018-06-02T16:41:22.606Z,28.98
2018-06-02T16:43:50.154Z,28.93
2018-06-02T16:46:17.747Z,28.87
2018-06-02T16:48:45.369Z,28.90
2018-06-02T16:51:12.921Z,28.89
2018-06-02T16:53:40.504Z,28.80
2018-06-02T16:56:08.082Z,28.70
2018-06-02T16:58:35.629Z,28.68
2018-06-02T17:01:03.184Z,28.62
2018-06-02T17:03:30.755Z,28.53
2018-06-02T17:05:58.298Z,28.39
2018-06-02T17:08:25.841Z,28.26
2018-06-02T17:10:53.429Z,28.16
2018-06-02T17:13:20.982Z,28.01
2018-06-02T17:15:48.530Z,27.92
2018-06-02T17:18:16.141Z,27.75
2018-06-02T17:20:43.696Z,27.58
2018-06-02T17:23:11.257Z,27.40
2018-06-02T17:25:38.830Z,27.18
2018-06-02T17:28:06.390Z,27.08
2018-06-02T17:30:33.938Z,26.99
2018-06-02T17:33:01.507Z,26.76
2018-06-02T17:35:29.058Z,26.62
2018-06-02T17:37:56.615Z,26.43
2018-06-02T17:40:24.193Z,26.15
2018-06-02T17:42:51.734Z,25.93
2018-06-02T17:45:19.278Z,25.86
2018-06-02T17:47:46.872Z,25.83
2018-06-02T17:50:14.420Z,25.55
2018-06-02T17:52:41.970Z,25.37
2018-06-02T17:55:09.554Z,25.18
2018-06-02T17:57:37.094Z,25.05
2018-06-02T18:00:04.671Z,24.93
2018-06-02T18:02:32.256Z,24.85
2018-06-02T18:04:59.816Z,24.84
2018-06-02T18:07:27.425Z,24.72
2018-06-02T18:09:55.012Z,24.57
2018-06-02T18:12:22.563Z,24.42
2018-06-02T18:14:50.129Z,24.54
2018-06-02T18:17:17.725Z,24.38
2018-06-02T18:19:45.276Z,24.28
2018-06-02T18:22:12.835Z,24.05
2018-06-02T18:24:40.422Z,24.11
2018-06-02T18:27:07.979Z,24.01
2018-06-02T18:29:35.531Z,23.83
2018-06-02T18:32:03.198Z,23.69
2018-06-02T18:34:30.751Z,23.61
2018-06-02T18:36:58.298Z,23.50
2018-06-02T18:39:26.085Z,23.38
2018-06-02T18:41:54.348Z,23.32
2018-06-02T18:44:21.938Z,23.21
2018-06-02T18:46:49.521Z,23.12
2018-06-02T18:49:17.096Z,23.05
2018-06-02T18:51:44.646Z,22.94
2018-06-02T18:54:12.232Z,22.97
2018-06-02T18:56:39.787Z,22.98
2018-06-02T18:59:07.339Z,22.95
2018-06-02T19:01:34.926Z,22.85
2018-06-02T19:04:02.482Z,22.79
2018-06-02T19:06:30.041Z,22.78
2018-06-02T19:08:57.624Z,22.83
2018-06-02T19:11:25.191Z,22.77
2018-06-02T19:13:52.734Z,22.73
2018-06-02T19:16:20.315Z,22.75
2018-06-02T19:18:47.870Z,22.85
2018-06-02T19:21:15.434Z,23.01
2018-06-02T19:23:43.011Z,23.16
2018-06-02T19:26:10.562Z,23.04
2018-06-02T19:28:38.112Z,23.00
2018-06-02T19:31:05.686Z,22.92
2018-06-02T19:33:33.231Z,22.95
2018-06-02T19:36:00.784Z,23.12
2018-06-02T19:38:28.367Z,23.15
2018-06-02T19:40:55.935Z,23.15
2018-06-02T19:43:23.488Z,23.34
2018-06-02T19:45:51.088Z,23.28
2018-06-02T19:48:18.648Z,23.19
2018-06-02T19:50:46.200Z,23.29
2018-06-02T19:53:13.788Z,23.23
2018-06-02T19:55:41.342Z,23.14
2018-06-02T19:58:08.895Z,23.03
2018-06-02T20:00:36.472Z,22.92
2018-06-02T20:03:04.019Z,22.82
2018-06-02T20:05:31.572Z,22.82
2018-06-02T20:08:28.677Z,22.49
2018-06-02T20:10:57.481Z,22.43
2018-06-02T20:13:26.311Z,22.40
2018-06-02T20:15:55.083Z,22.51
2018-06-02T20:18:23.814Z,22.70
2018-06-02T20:20:52.587Z,22.68
2018-06-02T20:23:21.412Z,22.72
2018-06-02T20:25:50.129Z,22.69
2018-06-02T20:28:18.853Z,22.60
2018-06-02T20:30:47.628Z,22.56
2018-06-02T20:33:16.331Z,22.53
2018-06-02T20:35:45.080Z,22.50
2018-06-02T20:38:13.838Z,22.35
2018-06-02T20:40:42.579Z,22.35
2018-06-02T20:43:11.318Z,22.36
2018-06-02T20:45:40.079Z,22.27
2018-06-02T20:48:08.880Z,22.25
2018-06-02T20:50:37.684Z,22.18
2018-06-02T20:53:06.503Z,22.13
2018-06-02T20:55:35.205Z,22.01
2018-06-02T20:58:03.956Z,21.85
2018-06-02T21:00:32.670Z,21.83
2018-06-02T21:03:01.453Z,21.80
2018-06-02T21:05:30.258Z,21.73
2018-06-02T21:07:58.986Z,21.72
2018-06-02T21:10:27.694Z,21.59
2018-06-02T21:12:56.456Z,21.44
2018-06-02T21:15:25.167Z,21.35
2018-06-02T21:17:53.981Z,21.36
2018-06-02T21:20:22.787Z,21.36
2018-06-02T21:22:51.519Z,21.39
2018-06-02T21:25:20.248Z,21.35
2018-06-02T21:27:48.999Z,21.25
2018-06-02T21:30:17.730Z,21.22
2018-06-02T21:32:46.442Z,21.28
2018-06-02T21:35:15.276Z,21.34
2018-06-02T21:37:44.061Z,21.35
2018-06-02T21:40:12.801Z,21.35
2018-06-02T21:42:41.557Z,21.35
2018-06-02T21:45:10.282Z,21.40
2018-06-02T21:47:38.978Z,21.41
2018-06-02T21:50:07.709Z,21.34
2018-06-02T21:52:36.439Z,21.32
2018-06-02T21:55:05.173Z,21.30
2018-06-02T21:57:33.922Z,21.33
2018-06-02T22:00:02.657Z,21.37
2018-06-02T22:02:31.386Z,21.35
2018-06-02T22:05:00.253Z,21.35
2018-06-02T22:07:29.114Z,21.32
2018-06-02T22:09:57.909Z,21.35
2018-06-02T22:12:26.938Z,21.31
2018-06-02T22:14:55.753Z,21.25
2018-06-02T22:17:24.632Z,21.16
2018-06-02T22:19:53.497Z,21.12
2018-06-02T22:22:22.302Z,21.04
2018-06-02T22:24:51.100Z,21.05
2018-06-02T22:27:19.960Z,20.99
2018-06-02T22:29:48.721Z,20.94
2018-06-02T22:32:17.523Z,20.86
2018-06-02T22:34:46.421Z,20.87
2018-06-02T22:37:15.285Z,20.83
2018-06-02T22:39:44.080Z,20.81
2018-06-02T22:42:12.806Z,20.79
2018-06-02T22:44:41.598Z,20.82
2018-06-02T22:47:10.458Z,20.78
2018-06-02T22:49:39.344Z,20.82
2018-06-02T22:52:08.325Z,20.87
2018-06-02T22:54:37.482Z,20.83
2018-06-02T22:57:06.448Z,20.84
2018-06-02T22:59:35.318Z,20.80
2018-06-02T23:02:04.030Z,20.79
2018-06-02T23:04:32.879Z,20.77
2018-06-02T23:07:01.664Z,20.76
2018-06-02T23:09:30.371Z,20.72
2018-06-02T23:11:59.160Z,20.65
2018-06-02T23:14:27.909Z,20.71
2018-06-02T23:16:56.626Z,20.63
2018-06-02T23:19:25.371Z,20.58
2018-06-02T23:21:54.110Z,20.56
2018-06-02T23:24:22.803Z,20.52
2018-06-02T23:26:51.538Z,20.45
2018-06-02T23:29:21.087Z,20.40
2018-06-02T23:31:49.791Z,20.31
2018-06-02T23:34:18.517Z,20.20
2018-06-02T23:36:47.213Z,20.07
2018-06-02T23:39:15.927Z,19.93
2018-06-02T23:41:44.674Z,19.85
2018-06-02T23:44:13.378Z,19.75
2018-06-02T23:46:42.110Z,19.60
2018-06-02T23:49:11.048Z,19.53
2018-06-02T23:51:39.814Z,19.48
2018-06-02T23:54:08.514Z,19.40
2018-06-02T23:56:37.258Z,19.34
2018-06-02T23:59:05.965Z,19.26
